Hostname: pi-star
Pi-Star:3.4.17 / Dashboard: 20200528

Pi-Star Digital Voice Dashboard for MW0MWZ

Dashboard | Admin | Configuration



DAPNET Gateway Activity
Time (BST)Time in BST time zone Time SlotMessage Mode TargetRIC / CapCode of the receiving Pager MessageMessage contents
09:38:00 May 29th Slot 12 0002504 [Skyper OTA Time] 083800 290520
09:34:08 May 29th Slot 8 0002504 [Skyper OTA Time] 083400 290520
09:32:00 May 29th Slot 4 0002504 [Skyper OTA Time] 083200 290520
09:30:17 May 29th Slot 4 0004520 [Skyper Rubric:60 Msg:2] DAPNET-Core Stats PrivMsgs:311 News:491Nodes:7/11 TXs:604/1938
09:30:17 May 29th Slot 4 0001060 DAPNET-Core Stats PrivMsgs:311 News:491Nodes:7/11 TXs:604/1938
09:30:17 May 29th Slot 4 0000008 mw0mwz
09:28:09 May 29th Slot 0 0002504 [Skyper OTA Time] 082800 290520
09:26:01 May 29th Slot 12 0002504 [Skyper OTA Time] 082600 290520
09:22:11 May 29th Slot 8 0002504 [Skyper OTA Time] 082200 290520
09:21:20 May 29th Slot 0 0351172 M0GLJ: LBBG 290800Z 30004KT 250V030 9999 FEW047 18/10 Q1015 NOSIG
09:21:20 May 29th Slot 0 0351172 M0GLJ: EGNX 290720Z 08007KT CAVOK 14/05 Q1030
09:20:54 May 29th Slot 12 0004520 [Skyper Rubric:28 Msg:7] SARC: Register now for free Amateur Radio Foundation Online training course
09:20:54 May 29th Slot 12 0001028 SARC: Register now for free Amateur Radio Foundation Online training course
09:20:03 May 29th Slot 4 0000008 mw0mwz
09:20:03 May 29th Slot 4 0002504 [Skyper OTA Time] 082000 290520
09:20:03 May 29th Slot 4 0004520 [Skyper Rubric:28 Msg:6] SARC: Mid-Altitude ham radio balloon race planned for June
09:20:03 May 29th Slot 4 0001028 SARC: Mid-Altitude ham radio balloon race planned for June
09:19:12 May 29th Slot 12 0004520 [Skyper Rubric:28 Msg:5] SARC: IARU Region 2 Executive Committee meets
09:19:12 May 29th Slot 12 0001028 SARC: IARU Region 2 Executive Committee meets
09:18:00 May 29th Slot 0 0002504 [Skyper OTA Time] 081800 290520